createdAt,value
2017-06-03T00:01:35.033Z,77.60
2017-06-03T00:04:05.381Z,80.60
2017-06-03T00:06:34.522Z,82.10
2017-06-03T00:09:02.861Z,81.20
2017-06-03T00:11:31.169Z,78.40
2017-06-03T00:13:59.498Z,78.10
2017-06-03T00:16:27.811Z,76.70
2017-06-03T00:18:56.173Z,74.20
2017-06-03T00:21:25.244Z,75.00
2017-06-03T00:23:53.598Z,74.90
2017-06-03T00:26:21.940Z,73.90
2017-06-03T00:28:50.244Z,72.90
2017-06-03T00:31:18.597Z,73.30
2017-06-03T00:33:46.915Z,71.50
2017-06-03T00:36:15.233Z,72.60
2017-06-03T00:38:43.538Z,72.00
2017-06-03T00:41:11.890Z,71.80
2017-06-03T00:43:40.212Z,71.60
2017-06-03T00:46:08.516Z,74.60
2017-06-03T00:48:36.842Z,72.00
2017-06-03T00:51:05.158Z,72.50
2017-06-03T00:53:33.498Z,73.30
2017-06-03T00:56:01.821Z,72.70
2017-06-03T00:58:30.183Z,73.30
2017-06-03T01:00:58.514Z,74.30
2017-06-03T01:03:26.817Z,72.40
2017-06-03T01:05:55.164Z,73.70
2017-06-03T01:08:23.533Z,73.10
2017-06-03T01:10:51.871Z,73.60
2017-06-03T01:13:20.167Z,73.20
2017-06-03T01:15:49.271Z,74.90
2017-06-03T01:18:18.341Z,74.10
2017-06-03T01:20:46.687Z,74.00
2017-06-03T01:23:15.049Z,74.00
2017-06-03T01:25:43.358Z,73.80
2017-06-03T01:28:11.681Z,73.10
2017-06-03T01:30:39.995Z,72.80
2017-06-03T01:33:08.337Z,73.80
2017-06-03T01:35:36.647Z,73.20
2017-06-03T01:38:04.993Z,72.30
2017-06-03T01:40:33.323Z,72.00
2017-06-03T01:43:01.700Z,73.00
2017-06-03T01:45:30.053Z,71.10
2017-06-03T01:47:58.385Z,71.70
2017-06-03T01:50:27.471Z,72.80
2017-06-03T01:52:55.778Z,72.80
2017-06-03T01:55:24.113Z,72.00
2017-06-03T01:57:52.416Z,72.60
2017-06-03T02:00:21.494Z,72.90
2017-06-03T02:02:50.613Z,72.50
2017-06-03T02:05:19.022Z,72.30
2017-06-03T02:07:47.329Z,71.40
2017-06-03T02:10:15.654Z,72.30
2017-06-03T02:12:43.976Z,72.10
2017-06-03T02:15:12.296Z,72.30
2017-06-03T02:17:40.752Z,72.90
2017-06-03T02:20:09.062Z,72.30
2017-06-03T02:22:37.376Z,72.20
2017-06-03T02:25:05.709Z,71.80
2017-06-03T02:27:34.041Z,72.40
2017-06-03T02:30:02.360Z,73.50
2017-06-03T02:32:30.713Z,73.50
2017-06-03T02:34:59.041Z,72.40
2017-06-03T02:37:27.353Z,73.60
2017-06-03T02:39:55.685Z,73.80
2017-06-03T02:42:24.012Z,74.00
2017-06-03T02:44:52.335Z,73.50
2017-06-03T02:47:20.646Z,73.30
2017-06-03T02:49:48.985Z,71.70
2017-06-03T02:52:17.301Z,72.10
2017-06-03T02:54:45.661Z,72.10
2017-06-03T02:57:14.045Z,72.90
2017-06-03T02:59:42.384Z,72.40
2017-06-03T03:02:10.785Z,72.80
2017-06-03T03:04:39.108Z,73.10
2017-06-03T03:07:07.418Z,74.00
2017-06-03T03:09:35.743Z,74.40
2017-06-03T03:12:04.037Z,75.00
2017-06-03T03:14:32.369Z,76.10
2017-06-03T03:17:00.671Z,75.40
2017-06-03T03:19:28.996Z,75.20
2017-06-03T03:21:57.352Z,75.50
2017-06-03T03:24:25.673Z,76.00
2017-06-03T03:26:53.988Z,75.10
2017-06-03T03:29:22.301Z,76.40
2017-06-03T03:31:50.635Z,75.60
2017-06-03T03:34:18.949Z,75.00
2017-06-03T03:36:47.300Z,75.90
2017-06-03T03:39:15.586Z,75.60
2017-06-03T03:41:43.926Z,76.20
2017-06-03T03:44:12.264Z,76.10
2017-06-03T03:46:40.571Z,76.50
2017-06-03T03:49:08.897Z,75.20
2017-06-03T03:51:37.200Z,76.70
2017-06-03T03:54:05.537Z,76.50
2017-06-03T03:56:33.848Z,76.80
2017-06-03T03:59:02.157Z,75.80
2017-06-03T04:01:30.484Z,77.10
2017-06-03T04:03:58.800Z,78.00
2017-06-03T04:06:27.130Z,80.10
2017-06-03T04:08:55.449Z,77.40
2017-06-03T04:11:23.789Z,79.20
2017-06-03T04:13:52.871Z,79.30
2017-06-03T04:16:21.186Z,78.70
2017-06-03T04:18:49.628Z,78.70
2017-06-03T04:21:17.938Z,77.40
2017-06-03T04:23:46.280Z,78.40
2017-06-03T04:26:14.613Z,77.80
2017-06-03T04:28:42.938Z,77.50
2017-06-03T04:31:11.250Z,77.70
2017-06-03T04:33:39.601Z,77.80
2017-06-03T04:36:08.721Z,78.90
2017-06-03T04:38:37.029Z,78.20
2017-06-03T04:41:05.366Z,77.20
2017-06-03T04:43:33.677Z,76.70
2017-06-03T04:46:02.007Z,78.80
2017-06-03T04:48:31.101Z,78.40
2017-06-03T04:51:00.242Z,76.80
2017-06-03T04:53:28.577Z,76.70
2017-06-03T04:55:57.643Z,78.30
2017-06-03T04:58:25.952Z,78.30
2017-06-03T05:00:54.281Z,76.80
2017-06-03T05:03:22.613Z,76.00
2017-06-03T05:05:50.923Z,76.80
2017-06-03T05:08:19.243Z,77.50
2017-06-03T05:10:48.332Z,77.50
2017-06-03T05:13:17.444Z,78.10
2017-06-03T05:15:45.753Z,77.90
2017-06-03T05:18:14.072Z,79.50
2017-06-03T05:20:42.380Z,76.80
2017-06-03T05:23:10.747Z,79.00
2017-06-03T05:25:39.832Z,78.70
2017-06-03T05:28:08.923Z,79.50
2017-06-03T05:30:37.240Z,79.50
2017-06-03T05:33:05.561Z,78.10
2017-06-03T05:35:33.888Z,79.20
2017-06-03T05:38:02.200Z,78.00
2017-06-03T05:40:30.636Z,78.80
2017-06-03T05:42:58.942Z,77.80
2017-06-03T05:45:27.272Z,77.80
2017-06-03T05:47:56.357Z,78.00
2017-06-03T05:50:24.672Z,77.80
2017-06-03T05:52:53.008Z,78.30
2017-06-03T05:55:21.428Z,78.30
2017-06-03T05:57:49.750Z,78.60
2017-06-03T06:00:18.081Z,78.30
2017-06-03T06:02:46.410Z,79.50
2017-06-03T06:05:14.773Z,80.80
2017-06-03T06:07:43.224Z,80.40
2017-06-03T06:10:11.535Z,79.20
2017-06-03T06:12:39.952Z,76.60
2017-06-03T06:15:08.381Z,77.30
2017-06-03T06:17:37.601Z,78.90
2017-06-03T06:20:06.749Z,78.10
2017-06-03T06:22:35.114Z,77.90
2017-06-03T06:25:04.017Z,78.70
2017-06-03T06:27:32.373Z,76.50
2017-06-03T06:30:00.708Z,76.80
2017-06-03T06:32:29.108Z,76.40
2017-06-03T06:34:58.193Z,78.80
2017-06-03T06:37:27.274Z,77.60
2017-06-03T06:39:56.541Z,79.30
2017-06-03T06:42:25.361Z,79.20
2017-06-03T06:44:53.735Z,76.30
2017-06-03T06:47:22.072Z,78.40
2017-06-03T06:49:50.445Z,76.60
2017-06-03T06:52:18.789Z,77.30
2017-06-03T06:54:47.158Z,79.30
2017-06-03T06:57:15.510Z,76.80
2017-06-03T06:59:44.532Z,79.00
2017-06-03T07:02:13.672Z,78.80
2017-06-03T07:04:41.989Z,78.70
2017-06-03T07:07:10.304Z,78.40
2017-06-03T07:09:38.620Z,80.00
2017-06-03T07:12:07.765Z,78.10
2017-06-03T07:14:36.945Z,77.00
2017-06-03T07:17:05.251Z,76.90
2017-06-03T07:19:33.560Z,77.00
2017-06-03T07:22:02.116Z,77.90
2017-06-03T07:24:30.463Z,78.10
2017-06-03T07:26:58.820Z,76.00
2017-06-03T07:29:27.148Z,78.40
2017-06-03T07:31:55.534Z,77.70
2017-06-03T07:34:23.956Z,78.00
2017-06-03T07:36:52.345Z,77.60
2017-06-03T07:39:20.706Z,78.30
2017-06-03T07:41:50.194Z,77.00
2017-06-03T07:44:18.734Z,76.60
2017-06-03T07:46:47.875Z,77.80
2017-06-03T07:49:16.310Z,77.40
2017-06-03T07:51:44.672Z,78.90
2017-06-03T07:54:13.019Z,80.40
2017-06-03T07:56:41.386Z,79.30
2017-06-03T07:59:09.829Z,79.00
2017-06-03T08:01:39.367Z,80.60
2017-06-03T08:04:07.720Z,82.70
2017-06-03T08:06:36.026Z,81.10
2017-06-03T08:09:04.372Z,82.40
2017-06-03T08:11:33.277Z,82.70
2017-06-03T08:14:01.729Z,83.80
2017-06-03T08:16:30.093Z,83.30
2017-06-03T08:19:00.178Z,84.70
2017-06-03T08:21:28.480Z,84.70
2017-06-03T08:23:56.840Z,84.50
2017-06-03T08:26:25.251Z,84.30
2017-06-03T08:28:53.575Z,85.50
2017-06-03T08:31:21.954Z,84.50
2017-06-03T08:33:50.306Z,85.70
2017-06-03T08:36:18.648Z,84.20
2017-06-03T08:38:47.014Z,83.80
2017-06-03T08:41:15.375Z,83.90
2017-06-03T08:43:43.710Z,84.70
2017-06-03T08:46:12.054Z,82.90
2017-06-03T08:48:40.441Z,85.80
2017-06-03T08:51:08.796Z,83.70
2017-06-03T08:53:37.116Z,84.70
2017-06-03T08:56:05.491Z,86.30
2017-06-03T08:58:33.813Z,86.80
2017-06-03T09:01:02.171Z,85.50
2017-06-03T09:03:30.549Z,84.90
2017-06-03T09:05:58.912Z,86.00
2017-06-03T09:08:27.340Z,87.00
2017-06-03T09:10:55.712Z,85.40
2017-06-03T09:13:24.053Z,84.50
2017-06-03T09:15:52.380Z,85.50
2017-06-03T09:18:20.702Z,85.00
2017-06-03T09:20:50.652Z,85.90
2017-06-03T09:23:18.979Z,86.90
2017-06-03T09:25:47.366Z,87.70
2017-06-03T09:28:15.748Z,89.00
2017-06-03T09:30:44.195Z,87.20
2017-06-03T09:33:12.552Z,87.90
2017-06-03T09:35:40.886Z,88.70
2017-06-03T09:38:09.202Z,88.70
2017-06-03T09:40:37.700Z,87.30
2017-06-03T09:43:06.945Z,86.40
2017-06-03T09:45:35.329Z,86.30
2017-06-03T09:48:03.690Z,86.60
2017-06-03T09:50:32.026Z,83.70
2017-06-03T09:53:00.431Z,86.80
2017-06-03T09:55:28.840Z,87.40
2017-06-03T09:57:57.242Z,86.90
2017-06-03T10:00:25.644Z,86.80
2017-06-03T10:02:54.208Z,86.70
2017-06-03T10:05:22.561Z,85.10
2017-06-03T10:07:50.963Z,85.70
2017-06-03T10:10:20.250Z,85.20
2017-06-03T10:12:48.590Z,85.10
2017-06-03T10:15:17.024Z,87.00
2017-06-03T10:17:45.378Z,88.10
2017-06-03T10:20:13.722Z,89.30
2017-06-03T10:22:42.117Z,90.00
2017-06-03T10:25:11.483Z,88.30
2017-06-03T10:27:40.588Z,87.60
2017-06-03T10:30:09.006Z,87.50
2017-06-03T10:32:37.412Z,87.80
2017-06-03T10:35:05.793Z,89.20
2017-06-03T10:37:34.462Z,87.40
2017-06-03T10:40:02.812Z,89.90
2017-06-03T10:42:31.145Z,88.40
2017-06-03T10:45:00.635Z,90.80
2017-06-03T10:47:29.005Z,90.80
2017-06-03T10:49:57.611Z,90.30
2017-06-03T10:52:26.799Z,90.10
2017-06-03T10:54:55.118Z,90.10
2017-06-03T10:57:23.551Z,89.50
2017-06-03T10:59:51.921Z,87.50
2017-06-03T11:02:21.209Z,88.00
2017-06-03T11:04:49.636Z,88.50
2017-06-03T11:07:18.213Z,87.50
2017-06-03T11:09:46.584Z,87.90
2017-06-03T11:12:14.965Z,87.00
2017-06-03T11:14:43.344Z,85.70
2017-06-03T11:17:12.457Z,83.40
2017-06-03T11:19:40.850Z,83.30
2017-06-03T11:22:09.214Z,83.60
2017-06-03T11:24:37.560Z,84.80
2017-06-03T11:27:06.721Z,83.30
2017-06-03T11:29:35.101Z,83.00
2017-06-03T11:32:04.406Z,82.20
2017-06-03T11:34:32.769Z,83.60
2017-06-03T11:37:01.133Z,82.40
2017-06-03T11:39:30.065Z,82.70
2017-06-03T11:41:58.401Z,82.60
2017-06-03T11:44:26.777Z,83.40
2017-06-03T11:46:55.166Z,82.70
2017-06-03T11:49:23.534Z,84.40
2017-06-03T11:51:51.927Z,83.10
2017-06-03T11:54:20.281Z,83.20
2017-06-03T11:56:48.634Z,84.20
2017-06-03T11:59:16.983Z,85.40
2017-06-03T12:01:46.141Z,86.00
2017-06-03T12:04:15.337Z,85.90
2017-06-03T12:06:43.729Z,85.90
2017-06-03T12:09:12.174Z,87.00
2017-06-03T12:11:40.526Z,86.90
2017-06-03T12:14:09.838Z,86.00
2017-06-03T12:16:38.187Z,85.90
2017-06-03T12:19:06.561Z,85.10
2017-06-03T12:21:34.986Z,86.90
2017-06-03T12:24:03.362Z,85.60
2017-06-03T12:26:31.809Z,84.50
2017-06-03T12:29:01.258Z,85.60
2017-06-03T12:31:29.603Z,85.50
2017-06-03T12:33:58.702Z,86.70
2017-06-03T12:36:27.069Z,86.50
2017-06-03T12:38:56.227Z,90.30
2017-06-03T12:41:24.577Z,90.00
2017-06-03T12:43:52.973Z,90.50
2017-06-03T12:46:21.362Z,91.40
2017-06-03T12:48:49.889Z,91.80
2017-06-03T12:51:18.250Z,92.80
2017-06-03T12:53:46.664Z,92.70
2017-06-03T12:56:15.032Z,92.40
2017-06-03T12:58:43.382Z,91.60
2017-06-03T13:01:11.785Z,91.90
2017-06-03T13:03:40.157Z,93.10
2017-06-03T13:06:08.603Z,93.50
2017-06-03T13:08:36.953Z,93.50
2017-06-03T13:11:05.292Z,93.10
2017-06-03T13:13:34.394Z,92.30
2017-06-03T13:16:02.742Z,92.30
2017-06-03T13:18:31.074Z,92.60
2017-06-03T13:20:59.399Z,92.00
2017-06-03T13:23:27.749Z,89.60
2017-06-03T13:25:56.091Z,87.30
2017-06-03T13:28:24.446Z,86.50
2017-06-03T13:30:52.766Z,86.60
2017-06-03T13:33:21.092Z,86.10
2017-06-03T13:35:49.437Z,88.10
2017-06-03T13:38:17.773Z,89.80
2017-06-03T13:40:46.097Z,91.30
2017-06-03T13:43:14.425Z,91.30
2017-06-03T13:45:42.769Z,91.80
2017-06-03T13:48:11.133Z,91.40
2017-06-03T13:50:39.451Z,91.10
2017-06-03T13:53:07.784Z,91.30
2017-06-03T13:55:36.113Z,91.70
2017-06-03T13:58:04.457Z,92.10
2017-06-03T14:00:32.797Z,92.00
2017-06-03T14:03:01.150Z,91.30
2017-06-03T14:05:29.479Z,92.00
2017-06-03T14:07:57.821Z,91.40
2017-06-03T14:10:26.133Z,91.10
2017-06-03T14:12:54.481Z,91.00
2017-06-03T14:15:22.812Z,90.90
2017-06-03T14:17:51.145Z,90.30
2017-06-03T14:20:19.548Z,90.80
2017-06-03T14:22:47.897Z,91.00
2017-06-03T14:25:16.249Z,90.70
2017-06-03T14:27:44.645Z,89.30
2017-06-03T14:30:13.055Z,88.60
2017-06-03T14:32:41.377Z,89.20
2017-06-03T14:35:09.744Z,86.00
2017-06-03T14:37:38.083Z,86.30
2017-06-03T14:40:06.400Z,86.30
2017-06-03T14:42:34.798Z,85.10
2017-06-03T14:45:03.120Z,84.70
2017-06-03T14:47:31.462Z,85.40
2017-06-03T14:49:59.811Z,85.90
2017-06-03T14:52:28.152Z,86.00
2017-06-03T14:54:56.486Z,86.30
2017-06-03T14:57:24.802Z,85.80
2017-06-03T14:59:53.145Z,87.50
2017-06-03T15:02:21.480Z,88.50
2017-06-03T15:04:49.816Z,87.10
2017-06-03T15:07:18.161Z,87.50
2017-06-03T15:09:46.472Z,87.50
2017-06-03T15:12:14.827Z,87.40
2017-06-03T15:14:43.141Z,87.10
2017-06-03T15:17:11.489Z,87.60
2017-06-03T15:19:39.815Z,86.80
2017-06-03T15:22:08.196Z,86.50
2017-06-03T15:24:36.551Z,85.00
2017-06-03T15:27:04.900Z,87.20
2017-06-03T15:29:33.226Z,85.80
2017-06-03T15:32:02.349Z,85.50
2017-06-03T15:34:30.677Z,85.40
2017-06-03T15:36:59.051Z,86.30
2017-06-03T15:39:27.380Z,86.20
2017-06-03T15:41:55.742Z,86.30
2017-06-03T15:44:24.077Z,86.90
2017-06-03T15:46:52.457Z,83.90
2017-06-03T15:49:20.773Z,85.20
2017-06-03T15:51:49.090Z,86.90
2017-06-03T15:54:17.434Z,83.00
2017-06-03T15:56:45.765Z,83.70
2017-06-03T15:59:14.158Z,83.50
2017-06-03T16:01:42.561Z,81.80
2017-06-03T16:04:10.907Z,80.50
2017-06-03T16:06:39.295Z,81.70
2017-06-03T16:09:07.658Z,80.70
2017-06-03T16:11:35.995Z,81.40
2017-06-03T16:14:04.360Z,78.20
2017-06-03T16:16:32.737Z,77.80
2017-06-03T16:19:01.114Z,77.30
2017-06-03T16:21:29.497Z,78.30
2017-06-03T16:23:57.883Z,78.20
2017-06-03T16:26:27.199Z,78.10
2017-06-03T16:28:55.578Z,79.30
2017-06-03T16:31:23.948Z,78.10
2017-06-03T16:33:52.337Z,76.70
2017-06-03T16:36:20.712Z,76.80
2017-06-03T16:38:50.139Z,75.40
2017-06-03T16:41:18.539Z,76.20
2017-06-03T16:43:47.713Z,75.40
2017-06-03T16:46:16.098Z,75.30
2017-06-03T16:48:44.397Z,76.70
2017-06-03T16:51:13.538Z,74.00
2017-06-03T16:53:41.878Z,74.00
2017-06-03T16:56:11.001Z,74.30
2017-06-03T16:58:39.360Z,75.60
2017-06-03T17:01:07.789Z,73.90
2017-06-03T17:03:36.125Z,74.30
2017-06-03T17:06:04.459Z,73.90
2017-06-03T17:08:32.888Z,76.20
2017-06-03T17:11:01.760Z,77.20
2017-06-03T17:13:30.577Z,75.70
2017-06-03T17:15:58.935Z,75.20
2017-06-03T17:18:27.265Z,75.60
2017-06-03T17:20:55.625Z,76.70
2017-06-03T17:23:23.996Z,76.80
2017-06-03T17:25:52.400Z,76.60
2017-06-03T17:28:20.786Z,75.60
2017-06-03T17:30:49.168Z,75.60
2017-06-03T17:33:17.545Z,75.80
2017-06-03T17:35:45.912Z,77.20
2017-06-03T17:38:14.316Z,77.10
2017-06-03T17:40:42.697Z,78.90
2017-06-03T17:43:11.065Z,76.60
2017-06-03T17:45:39.438Z,79.20
2017-06-03T17:48:08.695Z,78.40
2017-06-03T17:50:37.091Z,78.20
2017-06-03T17:53:05.469Z,77.20
2017-06-03T17:55:33.782Z,75.90
2017-06-03T17:58:02.086Z,76.70
2017-06-03T18:00:30.426Z,77.40
2017-06-03T18:02:58.743Z,76.90
2017-06-03T18:05:27.052Z,79.60
2017-06-03T18:07:55.389Z,78.70
2017-06-03T18:10:23.699Z,77.30
2017-06-03T18:12:52.033Z,78.70
2017-06-03T18:15:20.387Z,80.90
2017-06-03T18:17:48.707Z,83.30
2017-06-03T18:20:17.040Z,84.80
2017-06-03T18:22:46.210Z,90.10
2017-06-03T18:25:15.304Z,90.10
2017-06-03T18:27:43.659Z,90.70
2017-06-03T18:30:12.017Z,91.00
2017-06-03T18:32:40.333Z,91.60
2017-06-03T18:35:08.690Z,92.10
2017-06-03T18:37:37.019Z,92.70
2017-06-03T18:40:06.149Z,93.30
2017-06-03T18:42:34.478Z,93.00
2017-06-03T18:45:02.838Z,92.60
2017-06-03T18:47:31.218Z,92.50
2017-06-03T18:49:59.560Z,92.80
2017-06-03T18:52:27.923Z,93.10
2017-06-03T18:54:56.258Z,93.10
2017-06-03T18:57:24.611Z,93.20
2017-06-03T18:59:52.926Z,93.30
2017-06-03T19:02:22.051Z,93.80
2017-06-03T19:04:50.444Z,93.40
2017-06-03T19:07:18.801Z,93.10
2017-06-03T19:09:47.110Z,93.20
2017-06-03T19:12:15.468Z,93.30
2017-06-03T19:14:43.801Z,93.80
2017-06-03T19:17:12.108Z,94.00
2017-06-03T19:19:40.459Z,93.80
2017-06-03T19:22:08.765Z,93.40
2017-06-03T19:24:37.127Z,92.60
2017-06-03T19:27:06.250Z,92.60
2017-06-03T19:29:34.616Z,92.60
2017-06-03T19:32:02.946Z,92.80
2017-06-03T19:34:31.312Z,92.70
2017-06-03T19:36:59.750Z,92.10
2017-06-03T19:39:28.078Z,92.00
2017-06-03T19:41:56.552Z,92.30
2017-06-03T19:44:24.892Z,92.50
2017-06-03T19:46:53.229Z,92.40
2017-06-03T19:49:22.356Z,92.30
2017-06-03T19:51:50.678Z,92.20
2017-06-03T19:54:19.043Z,92.30
2017-06-03T19:56:47.372Z,92.50
2017-06-03T19:59:15.714Z,91.20
2017-06-03T20:01:44.072Z,91.20
2017-06-03T20:04:12.404Z,90.60
2017-06-03T20:06:41.522Z,89.50
2017-06-03T20:09:09.824Z,89.50
2017-06-03T20:11:38.219Z,90.20
2017-06-03T20:14:06.523Z,89.60
2017-06-03T20:16:35.621Z,90.10
2017-06-03T20:19:04.709Z,88.90
2017-06-03T20:21:33.053Z,88.90
2017-06-03T20:24:01.402Z,89.30
2017-06-03T20:26:29.718Z,89.70
2017-06-03T20:28:58.057Z,90.10
2017-06-03T20:31:26.371Z,88.60
2017-06-03T20:33:54.955Z,89.50
2017-06-03T20:36:23.282Z,89.70
2017-06-03T20:38:51.647Z,90.70
2017-06-03T20:41:19.987Z,91.30
2017-06-03T20:43:48.298Z,92.40
2017-06-03T20:46:17.456Z,92.30
2017-06-03T20:48:45.757Z,92.20
2017-06-03T20:51:14.857Z,91.70
2017-06-03T20:53:43.949Z,92.40
2017-06-03T20:56:13.053Z,92.00
2017-06-03T20:58:42.152Z,92.50
2017-06-03T21:01:10.481Z,92.50
2017-06-03T21:03:38.976Z,92.70
2017-06-03T21:06:07.347Z,93.30
2017-06-03T21:08:35.705Z,97.70
2017-06-03T21:11:04.652Z,99.90
2017-06-03T21:13:33.000Z,99.50
2017-06-03T21:16:01.337Z,99.90
2017-06-03T21:18:29.648Z,99.90
2017-06-03T21:20:57.993Z,99.90
2017-06-03T21:23:26.315Z,99.90
2017-06-03T21:25:54.649Z,99.90
2017-06-03T21:28:22.976Z,99.90
2017-06-03T21:30:52.105Z,99.90
2017-06-03T21:33:20.430Z,99.90
2017-06-03T21:35:48.744Z,99.90
2017-06-03T21:38:17.089Z,99.90
2017-06-03T21:40:45.415Z,99.90
2017-06-03T21:43:13.751Z,99.90
2017-06-03T21:45:42.088Z,99.90
2017-06-03T21:48:10.489Z,99.90
2017-06-03T21:50:38.813Z,99.90
2017-06-03T21:53:07.143Z,99.90
2017-06-03T21:55:35.498Z,99.90
2017-06-03T21:58:03.818Z,99.90
2017-06-03T22:00:33.045Z,99.90
2017-06-03T22:03:01.361Z,99.90
2017-06-03T22:05:29.778Z,99.90
2017-06-03T22:07:58.120Z,99.90
2017-06-03T22:10:26.424Z,99.90
2017-06-03T22:12:54.758Z,99.90
2017-06-03T22:15:23.097Z,99.90
2017-06-03T22:17:51.452Z,99.90
2017-06-03T22:20:20.573Z,99.90
2017-06-03T22:22:48.892Z,99.90
2017-06-03T22:25:17.222Z,99.90
2017-06-03T22:27:45.543Z,99.90
2017-06-03T22:30:13.892Z,99.90
2017-06-03T22:32:42.216Z,99.90
2017-06-03T22:35:10.559Z,99.90
2017-06-03T22:37:38.882Z,99.90
2017-06-03T22:40:08.821Z,99.90
2017-06-03T22:42:37.177Z,99.90
2017-06-03T22:45:06.255Z,99.90
2017-06-03T22:47:34.581Z,99.90
2017-06-03T22:50:02.910Z,99.90
2017-06-03T22:52:31.213Z,99.90
2017-06-03T22:55:00.293Z,99.90
2017-06-03T22:57:28.625Z,99.90
2017-06-03T22:59:56.942Z,99.90
2017-06-03T23:02:25.295Z,99.90
2017-06-03T23:04:53.696Z,99.90
2017-06-03T23:07:22.024Z,99.90
2017-06-03T23:09:50.348Z,99.90
2017-06-03T23:12:18.665Z,99.90
2017-06-03T23:14:46.997Z,99.90
2017-06-03T23:17:15.322Z,99.90
2017-06-03T23:19:43.661Z,99.90
2017-06-03T23:22:11.968Z,99.90
2017-06-03T23:24:40.285Z,99.90
2017-06-03T23:27:08.623Z,99.90
2017-06-03T23:29:36.933Z,99.90
2017-06-03T23:32:05.277Z,99.90
2017-06-03T23:34:34.356Z,99.90
2017-06-03T23:37:03.440Z,99.90
2017-06-03T23:39:32.006Z,99.90
2017-06-03T23:42:00.328Z,99.90
2017-06-03T23:44:28.640Z,99.90
2017-06-03T23:46:56.974Z,99.90
2017-06-03T23:49:26.042Z,99.90
2017-06-03T23:51:54.389Z,99.90
2017-06-03T23:54:22.688Z,99.90
2017-06-03T23:56:50.969Z,99.90
2017-06-03T23:59:19.304Z,99.90
